sensor_id;sensor_type;location;lat;lon;timestamp;P1;durP1;ratioP1;P2;durP2;ratioP2
10537;SDS011;5317;49.048;8.468;2023-06-22T00:00:49;4.40;;;4.00;;
10537;SDS011;5317;49.048;8.468;2023-06-22T00:03:16;5.10;;;3.93;;
10537;SDS011;5317;49.048;8.468;2023-06-22T00:05:44;5.40;;;3.97;;
10537;SDS011;5317;49.048;8.468;2023-06-22T00:08:11;4.83;;;4.33;;
10537;SDS011;5317;49.048;8.468;2023-06-22T00:10:42;4.50;;;4.10;;
10537;SDS011;5317;49.048;8.468;2023-06-22T00:13:10;4.80;;;4.30;;
10537;SDS011;5317;49.048;8.468;2023-06-22T00:15:44;5.03;;;4.17;;
10537;SDS011;5317;49.048;8.468;2023-06-22T00:18:10;4.07;;;3.73;;
10537;SDS011;5317;49.048;8.468;2023-06-22T00:20:44;5.20;;;4.13;;
10537;SDS011;5317;49.048;8.468;2023-06-22T00:23:11;5.00;;;4.43;;
10537;SDS011;5317;49.048;8.468;2023-06-22T00:25:43;4.70;;;4.20;;
10537;SDS011;5317;49.048;8.468;2023-06-22T00:28:10;5.00;;;4.50;;
10537;SDS011;5317;49.048;8.468;2023-06-22T00:30:37;5.30;;;4.70;;
10537;SDS011;5317;49.048;8.468;2023-06-22T00:33:05;5.53;;;4.67;;
10537;SDS011;5317;49.048;8.468;2023-06-22T00:35:33;5.13;;;4.23;;
10537;SDS011;5317;49.048;8.468;2023-06-22T00:38:00;6.40;;;4.50;;
10537;SDS011;5317;49.048;8.468;2023-06-22T00:40:28;5.80;;;4.43;;
10537;SDS011;5317;49.048;8.468;2023-06-22T00:42:57;8.97;;;5.57;;
10537;SDS011;5317;49.048;8.468;2023-06-22T00:45:25;6.30;;;5.33;;
10537;SDS011;5317;49.048;8.468;2023-06-22T00:47:52;6.20;;;4.93;;
10537;SDS011;5317;49.048;8.468;2023-06-22T00:50:24;5.60;;;4.57;;
10537;SDS011;5317;49.048;8.468;2023-06-22T00:52:54;5.30;;;4.80;;
10537;SDS011;5317;49.048;8.468;2023-06-22T00:55:23;5.00;;;4.60;;
10537;SDS011;5317;49.048;8.468;2023-06-22T00:57:51;6.40;;;5.50;;
10537;SDS011;5317;49.048;8.468;2023-06-22T01:00:22;5.00;;;4.60;;
10537;SDS011;5317;49.048;8.468;2023-06-22T01:02:50;5.63;;;4.93;;
10537;SDS011;5317;49.048;8.468;2023-06-22T01:05:18;7.57;;;5.20;;
10537;SDS011;5317;49.048;8.468;2023-06-22T01:07:49;6.63;;;5.53;;
10537;SDS011;5317;49.048;8.468;2023-06-22T01:10:28;6.67;;;5.47;;
10537;SDS011;5317;49.048;8.468;2023-06-22T01:13:01;6.70;;;6.00;;
10537;SDS011;5317;49.048;8.468;2023-06-22T01:15:35;5.60;;;5.00;;
10537;SDS011;5317;49.048;8.468;2023-06-22T01:18:05;6.83;;;5.00;;
10537;SDS011;5317;49.048;8.468;2023-06-22T01:20:36;9.83;;;5.57;;
10537;SDS011;5317;49.048;8.468;2023-06-22T01:23:11;7.77;;;5.57;;
10537;SDS011;5317;49.048;8.468;2023-06-22T01:25:47;5.90;;;5.30;;
10537;SDS011;5317;49.048;8.468;2023-06-22T01:28:23;8.00;;;5.77;;
10537;SDS011;5317;49.048;8.468;2023-06-22T01:31:01;7.50;;;5.60;;
10537;SDS011;5317;49.048;8.468;2023-06-22T01:33:31;6.03;;;5.30;;
10537;SDS011;5317;49.048;8.468;2023-06-22T01:36:01;8.50;;;6.17;;
10537;SDS011;5317;49.048;8.468;2023-06-22T01:38:29;6.13;;;5.53;;
10537;SDS011;5317;49.048;8.468;2023-06-22T01:40:56;7.00;;;5.60;;
10537;SDS011;5317;49.048;8.468;2023-06-22T01:43:32;8.43;;;5.77;;
10537;SDS011;5317;49.048;8.468;2023-06-22T01:46:01;5.87;;;5.37;;
10537;SDS011;5317;49.048;8.468;2023-06-22T01:48:30;9.50;;;5.57;;
10537;SDS011;5317;49.048;8.468;2023-06-22T01:50:57;7.13;;;5.93;;
10537;SDS011;5317;49.048;8.468;2023-06-22T01:53:25;8.03;;;6.33;;
10537;SDS011;5317;49.048;8.468;2023-06-22T01:55:52;6.47;;;5.87;;
10537;SDS011;5317;49.048;8.468;2023-06-22T01:58:19;6.73;;;6.00;;
10537;SDS011;5317;49.048;8.468;2023-06-22T02:00:50;8.40;;;5.67;;
10537;SDS011;5317;49.048;8.468;2023-06-22T02:03:26;6.67;;;6.07;;
10537;SDS011;5317;49.048;8.468;2023-06-22T02:05:58;7.93;;;6.37;;
10537;SDS011;5317;49.048;8.468;2023-06-22T02:08:33;6.63;;;5.93;;
10537;SDS011;5317;49.048;8.468;2023-06-22T02:11:04;7.37;;;6.07;;
10537;SDS011;5317;49.048;8.468;2023-06-22T02:13:33;6.40;;;5.60;;
10537;SDS011;5317;49.048;8.468;2023-06-22T02:16:03;6.60;;;5.90;;
10537;SDS011;5317;49.048;8.468;2023-06-22T02:18:36;6.47;;;5.83;;
10537;SDS011;5317;49.048;8.468;2023-06-22T02:21:06;7.93;;;5.80;;
10537;SDS011;5317;49.048;8.468;2023-06-22T02:23:32;6.43;;;5.83;;
10537;SDS011;5317;49.048;8.468;2023-06-22T02:26:00;7.67;;;6.27;;
10537;SDS011;5317;49.048;8.468;2023-06-22T02:28:28;6.53;;;5.93;;
10537;SDS011;5317;49.048;8.468;2023-06-22T02:30:55;8.00;;;6.43;;
10537;SDS011;5317;49.048;8.468;2023-06-22T02:33:23;8.17;;;6.00;;
10537;SDS011;5317;49.048;8.468;2023-06-22T02:35:50;6.70;;;6.03;;
10537;SDS011;5317;49.048;8.468;2023-06-22T02:38:17;6.80;;;6.10;;
10537;SDS011;5317;49.048;8.468;2023-06-22T02:40:45;12.53;;;6.13;;
10537;SDS011;5317;49.048;8.468;2023-06-22T02:43:12;6.13;;;5.63;;
10537;SDS011;5317;49.048;8.468;2023-06-22T02:45:42;7.60;;;6.27;;
10537;SDS011;5317;49.048;8.468;2023-06-22T02:48:08;6.43;;;5.83;;
10537;SDS011;5317;49.048;8.468;2023-06-22T02:50:38;6.10;;;5.50;;
10537;SDS011;5317;49.048;8.468;2023-06-22T02:53:04;6.27;;;5.67;;
10537;SDS011;5317;49.048;8.468;2023-06-22T02:55:31;7.40;;;5.67;;
10537;SDS011;5317;49.048;8.468;2023-06-22T02:57:58;6.23;;;5.50;;
10537;SDS011;5317;49.048;8.468;2023-06-22T03:00:29;7.20;;;5.90;;
10537;SDS011;5317;49.048;8.468;2023-06-22T03:03:04;6.93;;;6.23;;
10537;SDS011;5317;49.048;8.468;2023-06-22T03:05:33;6.60;;;6.00;;
10537;SDS011;5317;49.048;8.468;2023-06-22T03:08:03;7.43;;;6.20;;
10537;SDS011;5317;49.048;8.468;2023-06-22T03:10:30;8.33;;;6.17;;
10537;SDS011;5317;49.048;8.468;2023-06-22T03:12:56;6.80;;;6.10;;
10537;SDS011;5317;49.048;8.468;2023-06-22T03:15:23;6.87;;;6.17;;
10537;SDS011;5317;49.048;8.468;2023-06-22T03:17:54;6.80;;;6.07;;
10537;SDS011;5317;49.048;8.468;2023-06-22T03:20:20;6.87;;;6.17;;
10537;SDS011;5317;49.048;8.468;2023-06-22T03:22:48;7.10;;;6.17;;
10537;SDS011;5317;49.048;8.468;2023-06-22T03:25:16;6.73;;;5.90;;
10537;SDS011;5317;49.048;8.468;2023-06-22T03:27:43;6.20;;;4.97;;
10537;SDS011;5317;49.048;8.468;2023-06-22T03:30:10;6.83;;;6.10;;
10537;SDS011;5317;49.048;8.468;2023-06-22T03:32:38;6.80;;;6.17;;
10537;SDS011;5317;49.048;8.468;2023-06-22T03:35:11;6.50;;;5.90;;
10537;SDS011;5317;49.048;8.468;2023-06-22T03:37:39;6.93;;;6.10;;
10537;SDS011;5317;49.048;8.468;2023-06-22T03:40:06;8.00;;;5.83;;
10537;SDS011;5317;49.048;8.468;2023-06-22T03:42:35;7.57;;;5.63;;
10537;SDS011;5317;49.048;8.468;2023-06-22T03:45:02;6.63;;;6.03;;
10537;SDS011;5317;49.048;8.468;2023-06-22T03:47:32;7.13;;;5.73;;
10537;SDS011;5317;49.048;8.468;2023-06-22T03:49:59;7.60;;;6.57;;
10537;SDS011;5317;49.048;8.468;2023-06-22T03:52:25;6.87;;;6.17;;
10537;SDS011;5317;49.048;8.468;2023-06-22T03:54:52;7.33;;;5.93;;
10537;SDS011;5317;49.048;8.468;2023-06-22T03:57:19;6.77;;;6.13;;
10537;SDS011;5317;49.048;8.468;2023-06-22T03:59:47;8.10;;;6.20;;
10537;SDS011;5317;49.048;8.468;2023-06-22T04:02:14;7.70;;;6.00;;
10537;SDS011;5317;49.048;8.468;2023-06-22T04:04:42;7.53;;;6.73;;
10537;SDS011;5317;49.048;8.468;2023-06-22T04:07:09;6.93;;;6.23;;
10537;SDS011;5317;49.048;8.468;2023-06-22T04:09:36;8.00;;;6.50;;
10537;SDS011;5317;49.048;8.468;2023-06-22T04:12:03;9.43;;;6.27;;
10537;SDS011;5317;49.048;8.468;2023-06-22T04:14:32;7.73;;;6.47;;
10537;SDS011;5317;49.048;8.468;2023-06-22T04:17:01;6.73;;;6.03;;
10537;SDS011;5317;49.048;8.468;2023-06-22T04:19:27;7.07;;;5.97;;
10537;SDS011;5317;49.048;8.468;2023-06-22T04:21:54;7.43;;;6.27;;
10537;SDS011;5317;49.048;8.468;2023-06-22T04:24:22;10.07;;;6.60;;
10537;SDS011;5317;49.048;8.468;2023-06-22T04:26:49;8.40;;;6.43;;
10537;SDS011;5317;49.048;8.468;2023-06-22T04:29:19;8.87;;;6.37;;
10537;SDS011;5317;49.048;8.468;2023-06-22T04:31:54;8.17;;;6.27;;
10537;SDS011;5317;49.048;8.468;2023-06-22T04:34:24;8.27;;;5.97;;
10537;SDS011;5317;49.048;8.468;2023-06-22T04:36:54;7.07;;;6.30;;
10537;SDS011;5317;49.048;8.468;2023-06-22T04:39:21;9.03;;;6.13;;
10537;SDS011;5317;49.048;8.468;2023-06-22T04:41:49;10.90;;;7.03;;
10537;SDS011;5317;49.048;8.468;2023-06-22T04:44:18;7.43;;;6.03;;
10537;SDS011;5317;49.048;8.468;2023-06-22T04:46:50;8.47;;;6.70;;
10537;SDS011;5317;49.048;8.468;2023-06-22T04:49:19;7.43;;;6.60;;
10537;SDS011;5317;49.048;8.468;2023-06-22T04:51:48;9.00;;;6.40;;
10537;SDS011;5317;49.048;8.468;2023-06-22T04:54:16;11.13;;;7.20;;
10537;SDS011;5317;49.048;8.468;2023-06-22T04:56:43;10.97;;;7.57;;
10537;SDS011;5317;49.048;8.468;2023-06-22T04:59:14;9.33;;;7.33;;
10537;SDS011;5317;49.048;8.468;2023-06-22T05:01:43;13.93;;;7.73;;
10537;SDS011;5317;49.048;8.468;2023-06-22T05:04:10;11.87;;;7.70;;
10537;SDS011;5317;49.048;8.468;2023-06-22T05:06:37;14.13;;;7.77;;
10537;SDS011;5317;49.048;8.468;2023-06-22T05:09:06;11.80;;;6.93;;
10537;SDS011;5317;49.048;8.468;2023-06-22T05:11:33;7.30;;;5.83;;
10537;SDS011;5317;49.048;8.468;2023-06-22T05:14:00;8.80;;;6.47;;
10537;SDS011;5317;49.048;8.468;2023-06-22T05:16:26;11.80;;;7.10;;
10537;SDS011;5317;49.048;8.468;2023-06-22T05:18:54;11.20;;;6.37;;
10537;SDS011;5317;49.048;8.468;2023-06-22T05:21:21;7.10;;;6.40;;
10537;SDS011;5317;49.048;8.468;2023-06-22T05:23:49;7.17;;;6.50;;
10537;SDS011;5317;49.048;8.468;2023-06-22T05:26:18;8.17;;;5.80;;
10537;SDS011;5317;49.048;8.468;2023-06-22T05:28:45;10.83;;;6.70;;
10537;SDS011;5317;49.048;8.468;2023-06-22T05:31:13;8.40;;;6.70;;
10537;SDS011;5317;49.048;8.468;2023-06-22T05:33:42;6.77;;;5.30;;
10537;SDS011;5317;49.048;8.468;2023-06-22T05:36:10;9.90;;;6.47;;
10537;SDS011;5317;49.048;8.468;2023-06-22T05:38:38;7.23;;;6.53;;
10537;SDS011;5317;49.048;8.468;2023-06-22T05:41:06;9.10;;;6.40;;
10537;SDS011;5317;49.048;8.468;2023-06-22T05:43:36;7.63;;;6.00;;
10537;SDS011;5317;49.048;8.468;2023-06-22T05:46:03;7.17;;;6.47;;
10537;SDS011;5317;49.048;8.468;2023-06-22T05:48:31;6.93;;;6.23;;
10537;SDS011;5317;49.048;8.468;2023-06-22T05:50:58;7.60;;;6.10;;
10537;SDS011;5317;49.048;8.468;2023-06-22T05:53:25;7.80;;;6.20;;
10537;SDS011;5317;49.048;8.468;2023-06-22T05:55:54;9.23;;;6.63;;
10537;SDS011;5317;49.048;8.468;2023-06-22T05:58:21;11.50;;;7.33;;
10537;SDS011;5317;49.048;8.468;2023-06-22T06:00:49;8.60;;;6.53;;
10537;SDS011;5317;49.048;8.468;2023-06-22T06:03:16;8.10;;;6.90;;
10537;SDS011;5317;49.048;8.468;2023-06-22T06:05:43;7.83;;;6.60;;
10537;SDS011;5317;49.048;8.468;2023-06-22T06:08:10;9.03;;;6.83;;
10537;SDS011;5317;49.048;8.468;2023-06-22T06:10:38;8.60;;;6.70;;
10537;SDS011;5317;49.048;8.468;2023-06-22T06:13:05;7.47;;;6.00;;
10537;SDS011;5317;49.048;8.468;2023-06-22T06:15:33;6.63;;;5.97;;
10537;SDS011;5317;49.048;8.468;2023-06-22T06:18:04;8.67;;;6.80;;
10537;SDS011;5317;49.048;8.468;2023-06-22T06:20:31;9.03;;;6.30;;
10537;SDS011;5317;49.048;8.468;2023-06-22T06:22:58;8.03;;;7.13;;
10537;SDS011;5317;49.048;8.468;2023-06-22T06:25:34;7.73;;;6.07;;
10537;SDS011;5317;49.048;8.468;2023-06-22T06:28:04;7.13;;;5.67;;
10537;SDS011;5317;49.048;8.468;2023-06-22T06:30:31;6.57;;;5.97;;
10537;SDS011;5317;49.048;8.468;2023-06-22T06:32:58;9.60;;;6.63;;
10537;SDS011;5317;49.048;8.468;2023-06-22T06:35:28;7.50;;;6.77;;
10537;SDS011;5317;49.048;8.468;2023-06-22T06:37:55;7.10;;;6.20;;
10537;SDS011;5317;49.048;8.468;2023-06-22T06:40:22;8.10;;;6.87;;
10537;SDS011;5317;49.048;8.468;2023-06-22T06:42:51;7.33;;;6.33;;
10537;SDS011;5317;49.048;8.468;2023-06-22T06:45:19;9.13;;;6.97;;
10537;SDS011;5317;49.048;8.468;2023-06-22T06:47:47;9.63;;;7.30;;
10537;SDS011;5317;49.048;8.468;2023-06-22T06:50:18;8.30;;;6.33;;
10537;SDS011;5317;49.048;8.468;2023-06-22T06:52:47;7.80;;;6.27;;
10537;SDS011;5317;49.048;8.468;2023-06-22T06:55:16;6.90;;;5.93;;
10537;SDS011;5317;49.048;8.468;2023-06-22T06:57:44;11.30;;;6.87;;
10537;SDS011;5317;49.048;8.468;2023-06-22T07:00:16;7.50;;;6.80;;
10537;SDS011;5317;49.048;8.468;2023-06-22T07:02:44;10.17;;;7.57;;
10537;SDS011;5317;49.048;8.468;2023-06-22T07:05:13;7.37;;;6.60;;
10537;SDS011;5317;49.048;8.468;2023-06-22T07:07:47;7.97;;;6.07;;
10537;SDS011;5317;49.048;8.468;2023-06-22T07:10:15;6.93;;;6.23;;
10537;SDS011;5317;49.048;8.468;2023-06-22T07:12:43;9.13;;;6.47;;
10537;SDS011;5317;49.048;8.468;2023-06-22T07:15:10;7.47;;;6.20;;
10537;SDS011;5317;49.048;8.468;2023-06-22T07:17:38;7.30;;;6.43;;
10537;SDS011;5317;49.048;8.468;2023-06-22T07:20:08;6.87;;;6.10;;
10537;SDS011;5317;49.048;8.468;2023-06-22T07:22:37;8.27;;;6.50;;
10537;SDS011;5317;49.048;8.468;2023-06-22T07:25:08;5.97;;;5.13;;
10537;SDS011;5317;49.048;8.468;2023-06-22T07:27:36;6.80;;;6.20;;
10537;SDS011;5317;49.048;8.468;2023-06-22T07:30:10;9.63;;;6.30;;
10537;SDS011;5317;49.048;8.468;2023-06-22T07:32:37;7.07;;;6.37;;
10537;SDS011;5317;49.048;8.468;2023-06-22T07:35:07;6.60;;;5.90;;
10537;SDS011;5317;49.048;8.468;2023-06-22T07:37:34;6.50;;;5.90;;
10537;SDS011;5317;49.048;8.468;2023-06-22T07:40:01;7.87;;;6.10;;
10537;SDS011;5317;49.048;8.468;2023-06-22T07:42:33;6.90;;;6.20;;
10537;SDS011;5317;49.048;8.468;2023-06-22T07:44:59;7.53;;;5.10;;
10537;SDS011;5317;49.048;8.468;2023-06-22T07:47:30;8.90;;;5.77;;
10537;SDS011;5317;49.048;8.468;2023-06-22T07:50:00;6.03;;;5.07;;
10537;SDS011;5317;49.048;8.468;2023-06-22T07:52:33;7.27;;;5.57;;
10537;SDS011;5317;49.048;8.468;2023-06-22T07:55:00;6.77;;;5.20;;
10537;SDS011;5317;49.048;8.468;2023-06-22T07:57:27;6.93;;;5.40;;
10537;SDS011;5317;49.048;8.468;2023-06-22T08:00:03;5.83;;;5.13;;
10537;SDS011;5317;49.048;8.468;2023-06-22T08:02:39;7.30;;;5.47;;
10537;SDS011;5317;49.048;8.468;2023-06-22T08:05:06;7.17;;;5.30;;
10537;SDS011;5317;49.048;8.468;2023-06-22T08:07:39;6.23;;;5.33;;
10537;SDS011;5317;49.048;8.468;2023-06-22T08:10:06;6.00;;;5.40;;
10537;SDS011;5317;49.048;8.468;2023-06-22T08:12:37;5.97;;;5.37;;
10537;SDS011;5317;49.048;8.468;2023-06-22T08:15:07;5.57;;;5.03;;
10537;SDS011;5317;49.048;8.468;2023-06-22T08:17:34;6.33;;;5.00;;
10537;SDS011;5317;49.048;8.468;2023-06-22T08:20:03;5.40;;;4.90;;
10537;SDS011;5317;49.048;8.468;2023-06-22T08:22:36;6.63;;;4.90;;
10537;SDS011;5317;49.048;8.468;2023-06-22T08:25:10;5.57;;;4.53;;
10537;SDS011;5317;49.048;8.468;2023-06-22T08:27:38;6.23;;;4.97;;
10537;SDS011;5317;49.048;8.468;2023-06-22T08:30:07;5.47;;;4.90;;
10537;SDS011;5317;49.048;8.468;2023-06-22T08:32:38;7.10;;;5.60;;
10537;SDS011;5317;49.048;8.468;2023-06-22T08:35:07;5.60;;;5.10;;
10537;SDS011;5317;49.048;8.468;2023-06-22T08:37:34;10.03;;;4.83;;
10537;SDS011;5317;49.048;8.468;2023-06-22T08:40:02;5.93;;;5.00;;
10537;SDS011;5317;49.048;8.468;2023-06-22T08:42:32;8.13;;;5.10;;
10537;SDS011;5317;49.048;8.468;2023-06-22T08:44:59;7.93;;;4.70;;
10537;SDS011;5317;49.048;8.468;2023-06-22T08:47:31;6.73;;;4.90;;
10537;SDS011;5317;49.048;8.468;2023-06-22T08:49:58;8.67;;;4.83;;
10537;SDS011;5317;49.048;8.468;2023-06-22T08:52:30;6.53;;;5.17;;
10537;SDS011;5317;49.048;8.468;2023-06-22T08:54:57;6.40;;;4.53;;
10537;SDS011;5317;49.048;8.468;2023-06-22T08:57:24;5.23;;;4.50;;
10537;SDS011;5317;49.048;8.468;2023-06-22T08:59:57;7.73;;;5.00;;
10537;SDS011;5317;49.048;8.468;2023-06-22T09:02:24;8.13;;;5.40;;
10537;SDS011;5317;49.048;8.468;2023-06-22T09:04:54;7.50;;;5.10;;
10537;SDS011;5317;49.048;8.468;2023-06-22T09:07:21;6.60;;;5.03;;
10537;SDS011;5317;49.048;8.468;2023-06-22T09:09:49;6.77;;;5.10;;
10537;SDS011;5317;49.048;8.468;2023-06-22T09:12:19;5.77;;;4.63;;
10537;SDS011;5317;49.048;8.468;2023-06-22T09:14:50;5.83;;;5.23;;
10537;SDS011;5317;49.048;8.468;2023-06-22T09:17:21;5.57;;;5.07;;
10537;SDS011;5317;49.048;8.468;2023-06-22T09:19:49;5.27;;;4.77;;
10537;SDS011;5317;49.048;8.468;2023-06-22T09:22:17;6.70;;;5.20;;
10537;SDS011;5317;49.048;8.468;2023-06-22T09:24:44;6.77;;;5.20;;
10537;SDS011;5317;49.048;8.468;2023-06-22T09:27:17;5.77;;;5.10;;
10537;SDS011;5317;49.048;8.468;2023-06-22T09:29:44;6.40;;;5.70;;
10537;SDS011;5317;49.048;8.468;2023-06-22T09:32:11;6.33;;;5.10;;
10537;SDS011;5317;49.048;8.468;2023-06-22T09:34:39;6.70;;;5.60;;
10537;SDS011;5317;49.048;8.468;2023-06-22T09:37:06;9.33;;;5.20;;
10537;SDS011;5317;49.048;8.468;2023-06-22T09:39:34;7.90;;;5.57;;
10537;SDS011;5317;49.048;8.468;2023-06-22T09:42:01;6.57;;;5.33;;
10537;SDS011;5317;49.048;8.468;2023-06-22T09:44:30;6.50;;;4.93;;
10537;SDS011;5317;49.048;8.468;2023-06-22T09:46:57;7.47;;;5.33;;
10537;SDS011;5317;49.048;8.468;2023-06-22T09:49:24;6.33;;;5.10;;
10537;SDS011;5317;49.048;8.468;2023-06-22T09:51:51;5.97;;;5.23;;
10537;SDS011;5317;49.048;8.468;2023-06-22T09:54:18;7.53;;;5.60;;
10537;SDS011;5317;49.048;8.468;2023-06-22T09:56:46;7.63;;;5.20;;
10537;SDS011;5317;49.048;8.468;2023-06-22T09:59:13;7.30;;;5.23;;
10537;SDS011;5317;49.048;8.468;2023-06-22T10:01:39;7.83;;;5.00;;
10537;SDS011;5317;49.048;8.468;2023-06-22T10:04:06;10.17;;;5.90;;
10537;SDS011;5317;49.048;8.468;2023-06-22T10:06:34;6.77;;;4.90;;
10537;SDS011;5317;49.048;8.468;2023-06-22T10:09:01;8.40;;;5.47;;
10537;SDS011;5317;49.048;8.468;2023-06-22T10:11:28;8.07;;;5.57;;
10537;SDS011;5317;49.048;8.468;2023-06-22T10:13:57;7.30;;;5.70;;
10537;SDS011;5317;49.048;8.468;2023-06-22T10:16:30;5.80;;;5.00;;
10537;SDS011;5317;49.048;8.468;2023-06-22T10:18:57;8.13;;;5.57;;
10537;SDS011;5317;49.048;8.468;2023-06-22T10:21:24;6.83;;;5.43;;
10537;SDS011;5317;49.048;8.468;2023-06-22T10:23:52;7.63;;;5.10;;
10537;SDS011;5317;49.048;8.468;2023-06-22T10:26:19;6.63;;;5.23;;
10537;SDS011;5317;49.048;8.468;2023-06-22T10:28:45;7.53;;;5.67;;
10537;SDS011;5317;49.048;8.468;2023-06-22T10:31:14;6.83;;;5.47;;
10537;SDS011;5317;49.048;8.468;2023-06-22T10:33:41;6.73;;;5.47;;
10537;SDS011;5317;49.048;8.468;2023-06-22T10:36:09;6.37;;;5.10;;
10537;SDS011;5317;49.048;8.468;2023-06-22T10:38:36;9.27;;;6.23;;
10537;SDS011;5317;49.048;8.468;2023-06-22T10:41:03;7.27;;;5.17;;
10537;SDS011;5317;49.048;8.468;2023-06-22T10:43:29;8.03;;;5.27;;
10537;SDS011;5317;49.048;8.468;2023-06-22T10:45:56;6.80;;;5.40;;
10537;SDS011;5317;49.048;8.468;2023-06-22T10:48:24;7.43;;;5.23;;
10537;SDS011;5317;49.048;8.468;2023-06-22T10:50:51;6.90;;;5.40;;
10537;SDS011;5317;49.048;8.468;2023-06-22T10:53:19;7.47;;;5.30;;
10537;SDS011;5317;49.048;8.468;2023-06-22T10:55:46;7.50;;;5.30;;
10537;SDS011;5317;49.048;8.468;2023-06-22T10:58:13;8.10;;;5.87;;
10537;SDS011;5317;49.048;8.468;2023-06-22T11:00:40;10.60;;;5.53;;
10537;SDS011;5317;49.048;8.468;2023-06-22T11:03:07;6.90;;;4.83;;
10537;SDS011;5317;49.048;8.468;2023-06-22T11:05:35;7.00;;;5.10;;
10537;SDS011;5317;49.048;8.468;2023-06-22T11:08:02;7.67;;;5.53;;
10537;SDS011;5317;49.048;8.468;2023-06-22T11:10:28;8.83;;;5.53;;
10537;SDS011;5317;49.048;8.468;2023-06-22T11:12:55;8.20;;;4.83;;
10537;SDS011;5317;49.048;8.468;2023-06-22T11:15:23;7.93;;;5.17;;
10537;SDS011;5317;49.048;8.468;2023-06-22T11:17:50;8.17;;;5.10;;
10537;SDS011;5317;49.048;8.468;2023-06-22T11:20:17;7.83;;;5.53;;
10537;SDS011;5317;49.048;8.468;2023-06-22T11:22:46;8.50;;;5.30;;
10537;SDS011;5317;49.048;8.468;2023-06-22T11:25:12;5.80;;;5.20;;
10537;SDS011;5317;49.048;8.468;2023-06-22T11:27:39;6.93;;;5.07;;
10537;SDS011;5317;49.048;8.468;2023-06-22T11:30:07;7.73;;;5.30;;
10537;SDS011;5317;49.048;8.468;2023-06-22T11:32:34;9.47;;;6.00;;
10537;SDS011;5317;49.048;8.468;2023-06-22T11:35:01;6.97;;;5.13;;
10537;SDS011;5317;49.048;8.468;2023-06-22T11:37:28;8.13;;;5.20;;
10537;SDS011;5317;49.048;8.468;2023-06-22T11:39:56;6.70;;;5.27;;
10537;SDS011;5317;49.048;8.468;2023-06-22T11:42:23;7.67;;;5.50;;
10537;SDS011;5317;49.048;8.468;2023-06-22T11:44:50;6.43;;;5.37;;
10537;SDS011;5317;49.048;8.468;2023-06-22T11:47:17;8.97;;;6.00;;
10537;SDS011;5317;49.048;8.468;2023-06-22T11:49:44;6.70;;;5.43;;
10537;SDS011;5317;49.048;8.468;2023-06-22T11:52:11;6.30;;;5.03;;
10537;SDS011;5317;49.048;8.468;2023-06-22T11:54:38;7.07;;;5.30;;
10537;SDS011;5317;49.048;8.468;2023-06-22T11:57:06;7.60;;;5.60;;
10537;SDS011;5317;49.048;8.468;2023-06-22T11:59:33;6.50;;;5.30;;
10537;SDS011;5317;49.048;8.468;2023-06-22T12:02:00;7.10;;;5.47;;
10537;SDS011;5317;49.048;8.468;2023-06-22T12:04:26;7.37;;;5.43;;
10537;SDS011;5317;49.048;8.468;2023-06-22T12:06:53;7.90;;;5.43;;
10537;SDS011;5317;49.048;8.468;2023-06-22T12:09:20;9.33;;;6.00;;
10537;SDS011;5317;49.048;8.468;2023-06-22T12:11:47;8.50;;;5.67;;
10537;SDS011;5317;49.048;8.468;2023-06-22T12:14:15;7.00;;;5.63;;
10537;SDS011;5317;49.048;8.468;2023-06-22T12:16:42;10.00;;;6.00;;
10537;SDS011;5317;49.048;8.468;2023-06-22T12:19:10;5.83;;;5.13;;
10537;SDS011;5317;49.048;8.468;2023-06-22T12:21:37;6.07;;;5.23;;
10537;SDS011;5317;49.048;8.468;2023-06-22T12:24:05;6.67;;;5.40;;
10537;SDS011;5317;49.048;8.468;2023-06-22T12:26:32;5.93;;;5.23;;
10537;SDS011;5317;49.048;8.468;2023-06-22T12:28:59;10.03;;;6.37;;
10537;SDS011;5317;49.048;8.468;2023-06-22T12:31:27;7.40;;;6.03;;
10537;SDS011;5317;49.048;8.468;2023-06-22T12:33:54;8.57;;;5.93;;
10537;SDS011;5317;49.048;8.468;2023-06-22T12:36:21;8.83;;;5.83;;
10537;SDS011;5317;49.048;8.468;2023-06-22T12:38:47;7.63;;;6.60;;
10537;SDS011;5317;49.048;8.468;2023-06-22T12:41:15;6.73;;;5.77;;
10537;SDS011;5317;49.048;8.468;2023-06-22T12:43:41;6.10;;;5.60;;
10537;SDS011;5317;49.048;8.468;2023-06-22T12:46:08;6.57;;;5.73;;
10537;SDS011;5317;49.048;8.468;2023-06-22T12:48:36;7.70;;;6.00;;
10537;SDS011;5317;49.048;8.468;2023-06-22T12:51:07;6.30;;;5.67;;
10537;SDS011;5317;49.048;8.468;2023-06-22T12:53:34;8.13;;;6.13;;
10537;SDS011;5317;49.048;8.468;2023-06-22T12:56:01;10.30;;;5.80;;
10537;SDS011;5317;49.048;8.468;2023-06-22T12:58:28;7.47;;;5.50;;
10537;SDS011;5317;49.048;8.468;2023-06-22T13:00:54;7.17;;;5.40;;
10537;SDS011;5317;49.048;8.468;2023-06-22T13:03:21;9.57;;;5.77;;
10537;SDS011;5317;49.048;8.468;2023-06-22T13:05:51;7.33;;;5.93;;
10537;SDS011;5317;49.048;8.468;2023-06-22T13:08:18;7.87;;;6.63;;
10537;SDS011;5317;49.048;8.468;2023-06-22T13:10:45;8.83;;;5.53;;
10537;SDS011;5317;49.048;8.468;2023-06-22T13:13:12;8.73;;;6.13;;
10537;SDS011;5317;49.048;8.468;2023-06-22T13:15:39;9.30;;;6.43;;
10537;SDS011;5317;49.048;8.468;2023-06-22T13:18:05;8.23;;;5.53;;
10537;SDS011;5317;49.048;8.468;2023-06-22T13:20:33;7.50;;;5.57;;
10537;SDS011;5317;49.048;8.468;2023-06-22T13:23:02;8.80;;;6.17;;
10537;SDS011;5317;49.048;8.468;2023-06-22T13:25:28;7.20;;;6.23;;
10537;SDS011;5317;49.048;8.468;2023-06-22T13:27:55;7.07;;;5.83;;
10537;SDS011;5317;49.048;8.468;2023-06-22T13:30:22;10.37;;;6.83;;
10537;SDS011;5317;49.048;8.468;2023-06-22T13:32:49;6.90;;;6.03;;
10537;SDS011;5317;49.048;8.468;2023-06-22T13:35:16;7.47;;;5.53;;
10537;SDS011;5317;49.048;8.468;2023-06-22T13:37:42;7.90;;;6.23;;
10537;SDS011;5317;49.048;8.468;2023-06-22T13:40:12;9.57;;;5.87;;
10537;SDS011;5317;49.048;8.468;2023-06-22T13:42:39;7.40;;;6.40;;
10537;SDS011;5317;49.048;8.468;2023-06-22T13:45:07;9.80;;;6.17;;
10537;SDS011;5317;49.048;8.468;2023-06-22T13:47:34;8.43;;;6.30;;
10537;SDS011;5317;49.048;8.468;2023-06-22T13:50:01;9.47;;;6.70;;
10537;SDS011;5317;49.048;8.468;2023-06-22T13:52:28;7.77;;;6.33;;
10537;SDS011;5317;49.048;8.468;2023-06-22T14:18:56;8.17;;;6.13;;
10537;SDS011;5317;49.048;8.468;2023-06-22T14:21:23;9.83;;;6.57;;
10537;SDS011;5317;49.048;8.468;2023-06-22T14:23:50;9.83;;;6.40;;
10537;SDS011;5317;49.048;8.468;2023-06-22T14:26:17;10.03;;;6.53;;
10537;SDS011;5317;49.048;8.468;2023-06-22T14:28:44;8.90;;;6.30;;
10537;SDS011;5317;49.048;8.468;2023-06-22T14:31:13;6.77;;;6.17;;
10537;SDS011;5317;49.048;8.468;2023-06-22T14:33:40;9.00;;;6.00;;
10537;SDS011;5317;49.048;8.468;2023-06-22T14:36:08;12.63;;;6.40;;
10537;SDS011;5317;49.048;8.468;2023-06-22T14:38:36;10.43;;;6.60;;
10537;SDS011;5317;49.048;8.468;2023-06-22T14:41:03;10.10;;;6.47;;
10537;SDS011;5317;49.048;8.468;2023-06-22T14:43:31;10.13;;;6.63;;
10537;SDS011;5317;49.048;8.468;2023-06-22T14:45:57;10.93;;;5.93;;
10537;SDS011;5317;49.048;8.468;2023-06-22T14:48:25;11.00;;;6.23;;
10537;SDS011;5317;49.048;8.468;2023-06-22T14:50:52;7.07;;;6.13;;
10537;SDS011;5317;49.048;8.468;2023-06-22T14:53:21;8.50;;;6.00;;
10537;SDS011;5317;49.048;8.468;2023-06-22T14:55:48;10.50;;;6.53;;
10537;SDS011;5317;49.048;8.468;2023-06-22T14:58:15;8.10;;;6.07;;
10537;SDS011;5317;49.048;8.468;2023-06-22T15:00:42;9.87;;;6.20;;
10537;SDS011;5317;49.048;8.468;2023-06-22T15:03:08;7.27;;;6.03;;
10537;SDS011;5317;49.048;8.468;2023-06-22T15:05:41;11.23;;;6.00;;
10537;SDS011;5317;49.048;8.468;2023-06-22T15:08:08;8.47;;;6.00;;
10537;SDS011;5317;49.048;8.468;2023-06-22T15:10:37;8.67;;;6.40;;
10537;SDS011;5317;49.048;8.468;2023-06-22T15:13:03;8.60;;;6.40;;
10537;SDS011;5317;49.048;8.468;2023-06-22T15:15:30;8.60;;;5.80;;
10537;SDS011;5317;49.048;8.468;2023-06-22T15:17:58;8.83;;;6.67;;
10537;SDS011;5317;49.048;8.468;2023-06-22T15:20:25;6.77;;;5.70;;
10537;SDS011;5317;49.048;8.468;2023-06-22T15:22:52;9.87;;;6.30;;
10537;SDS011;5317;49.048;8.468;2023-06-22T15:25:19;8.20;;;5.30;;
10537;SDS011;5317;49.048;8.468;2023-06-22T15:27:48;11.07;;;6.33;;
10537;SDS011;5317;49.048;8.468;2023-06-22T15:30:15;6.47;;;5.63;;